sensor_id;sensor_type;location;lat;lon;timestamp;P1;durP1;ratioP1;P2;durP2;ratioP2
19867;SDS011;10096;51.112;6.776;2023-07-31T00:02:26;7.28;;;4.57;;
19867;SDS011;10096;51.112;6.776;2023-07-31T00:04:55;9.40;;;4.72;;
19867;SDS011;10096;51.112;6.776;2023-07-31T00:07:22;8.48;;;5.00;;
19867;SDS011;10096;51.112;6.776;2023-07-31T00:09:51;6.35;;;4.40;;
19867;SDS011;10096;51.112;6.776;2023-07-31T00:12:18;8.23;;;4.30;;
19867;SDS011;10096;51.112;6.776;2023-07-31T00:14:45;8.38;;;4.55;;
19867;SDS011;10096;51.112;6.776;2023-07-31T00:17:12;6.90;;;4.05;;
19867;SDS011;10096;51.112;6.776;2023-07-31T00:19:40;7.03;;;4.60;;
19867;SDS011;10096;51.112;6.776;2023-07-31T00:22:07;6.63;;;4.43;;
19867;SDS011;10096;51.112;6.776;2023-07-31T00:24:34;6.20;;;4.30;;
19867;SDS011;10096;51.112;6.776;2023-07-31T00:27:02;6.60;;;4.50;;
19867;SDS011;10096;51.112;6.776;2023-07-31T00:29:30;5.38;;;4.28;;
19867;SDS011;10096;51.112;6.776;2023-07-31T00:31:57;10.20;;;4.50;;
19867;SDS011;10096;51.112;6.776;2023-07-31T00:34:24;7.20;;;4.22;;
19867;SDS011;10096;51.112;6.776;2023-07-31T00:36:51;10.45;;;4.43;;
19867;SDS011;10096;51.112;6.776;2023-07-31T00:39:18;8.20;;;4.85;;
19867;SDS011;10096;51.112;6.776;2023-07-31T00:41:45;8.10;;;4.80;;
19867;SDS011;10096;51.112;6.776;2023-07-31T00:44:13;7.15;;;4.22;;
19867;SDS011;10096;51.112;6.776;2023-07-31T00:46:41;6.93;;;4.13;;
19867;SDS011;10096;51.112;6.776;2023-07-31T00:49:08;6.65;;;4.13;;
19867;SDS011;10096;51.112;6.776;2023-07-31T00:51:36;6.47;;;4.20;;
19867;SDS011;10096;51.112;6.776;2023-07-31T00:54:01;8.00;;;4.35;;
19867;SDS011;10096;51.112;6.776;2023-07-31T00:56:30;9.00;;;4.68;;
19867;SDS011;10096;51.112;6.776;2023-07-31T00:58:57;6.95;;;3.80;;
19867;SDS011;10096;51.112;6.776;2023-07-31T01:01:30;8.15;;;4.90;;
19867;SDS011;10096;51.112;6.776;2023-07-31T01:03:59;7.50;;;4.50;;
19867;SDS011;10096;51.112;6.776;2023-07-31T01:06:29;6.72;;;4.57;;
19867;SDS011;10096;51.112;6.776;2023-07-31T01:09:03;9.93;;;5.30;;
19867;SDS011;10096;51.112;6.776;2023-07-31T01:11:35;10.65;;;4.80;;
19867;SDS011;10096;51.112;6.776;2023-07-31T01:14:06;7.88;;;4.22;;
19867;SDS011;10096;51.112;6.776;2023-07-31T01:16:34;6.82;;;4.72;;
19867;SDS011;10096;51.112;6.776;2023-07-31T01:19:01;7.68;;;4.75;;
19867;SDS011;10096;51.112;6.776;2023-07-31T01:21:30;8.38;;;4.88;;
19867;SDS011;10096;51.112;6.776;2023-07-31T01:27:03;8.15;;;4.15;;
19867;SDS011;10096;51.112;6.776;2023-07-31T01:29:35;8.95;;;4.43;;
19867;SDS011;10096;51.112;6.776;2023-07-31T01:32:05;7.80;;;4.40;;
19867;SDS011;10096;51.112;6.776;2023-07-31T01:34:34;9.15;;;4.32;;
19867;SDS011;10096;51.112;6.776;2023-07-31T01:37:02;8.13;;;4.45;;
19867;SDS011;10096;51.112;6.776;2023-07-31T01:39:30;8.65;;;4.47;;
19867;SDS011;10096;51.112;6.776;2023-07-31T01:41:57;10.95;;;4.60;;
19867;SDS011;10096;51.112;6.776;2023-07-31T01:44:25;8.82;;;4.10;;
19867;SDS011;10096;51.112;6.776;2023-07-31T01:46:53;8.95;;;4.63;;
19867;SDS011;10096;51.112;6.776;2023-07-31T01:49:20;7.90;;;4.47;;
19867;SDS011;10096;51.112;6.776;2023-07-31T01:51:47;7.18;;;4.13;;
19867;SDS011;10096;51.112;6.776;2023-07-31T01:54:14;7.50;;;4.60;;
19867;SDS011;10096;51.112;6.776;2023-07-31T01:56:41;8.05;;;4.07;;
19867;SDS011;10096;51.112;6.776;2023-07-31T01:59:08;8.18;;;3.88;;
19867;SDS011;10096;51.112;6.776;2023-07-31T02:01:37;9.07;;;5.05;;
19867;SDS011;10096;51.112;6.776;2023-07-31T02:04:04;9.57;;;4.53;;
19867;SDS011;10096;51.112;6.776;2023-07-31T02:06:32;10.35;;;4.70;;
19867;SDS011;10096;51.112;6.776;2023-07-31T02:08:59;8.45;;;4.70;;
19867;SDS011;10096;51.112;6.776;2023-07-31T02:11:26;6.18;;;3.65;;
19867;SDS011;10096;51.112;6.776;2023-07-31T02:13:53;7.45;;;4.32;;
19867;SDS011;10096;51.112;6.776;2023-07-31T02:16:20;7.75;;;4.38;;
19867;SDS011;10096;51.112;6.776;2023-07-31T02:18:48;7.55;;;4.15;;
19867;SDS011;10096;51.112;6.776;2023-07-31T02:21:15;8.70;;;4.15;;
19867;SDS011;10096;51.112;6.776;2023-07-31T02:23:42;9.05;;;4.40;;
19867;SDS011;10096;51.112;6.776;2023-07-31T02:26:09;8.48;;;4.18;;
19867;SDS011;10096;51.112;6.776;2023-07-31T02:28:36;7.50;;;4.38;;
19867;SDS011;10096;51.112;6.776;2023-07-31T02:31:03;7.72;;;3.80;;
19867;SDS011;10096;51.112;6.776;2023-07-31T02:33:30;7.28;;;4.22;;
19867;SDS011;10096;51.112;6.776;2023-07-31T02:35:59;6.40;;;4.38;;
19867;SDS011;10096;51.112;6.776;2023-07-31T02:38:26;7.78;;;4.03;;
19867;SDS011;10096;51.112;6.776;2023-07-31T02:40:53;7.72;;;4.30;;
19867;SDS011;10096;51.112;6.776;2023-07-31T02:43:20;10.38;;;4.75;;
19867;SDS011;10096;51.112;6.776;2023-07-31T02:45:50;6.00;;;4.18;;
19867;SDS011;10096;51.112;6.776;2023-07-31T02:48:17;7.22;;;3.95;;
19867;SDS011;10096;51.112;6.776;2023-07-31T02:50:45;5.85;;;3.90;;
19867;SDS011;10096;51.112;6.776;2023-07-31T02:53:15;7.63;;;4.35;;
19867;SDS011;10096;51.112;6.776;2023-07-31T02:55:42;8.07;;;4.63;;
19867;SDS011;10096;51.112;6.776;2023-07-31T02:58:09;8.20;;;4.45;;
19867;SDS011;10096;51.112;6.776;2023-07-31T03:00:36;8.45;;;4.20;;
19867;SDS011;10096;51.112;6.776;2023-07-31T03:03:08;6.95;;;4.00;;
19867;SDS011;10096;51.112;6.776;2023-07-31T03:05:35;8.43;;;4.55;;
19867;SDS011;10096;51.112;6.776;2023-07-31T03:08:02;8.75;;;4.75;;
19867;SDS011;10096;51.112;6.776;2023-07-31T03:10:31;11.10;;;5.25;;
19867;SDS011;10096;51.112;6.776;2023-07-31T03:12:58;8.60;;;4.50;;
19867;SDS011;10096;51.112;6.776;2023-07-31T03:15:25;6.20;;;4.80;;
19867;SDS011;10096;51.112;6.776;2023-07-31T03:17:51;8.10;;;4.57;;
19867;SDS011;10096;51.112;6.776;2023-07-31T03:20:18;9.32;;;4.63;;
19867;SDS011;10096;51.112;6.776;2023-07-31T03:22:45;7.72;;;4.13;;
19867;SDS011;10096;51.112;6.776;2023-07-31T03:25:13;8.15;;;4.53;;
19867;SDS011;10096;51.112;6.776;2023-07-31T03:27:41;8.13;;;4.57;;
19867;SDS011;10096;51.112;6.776;2023-07-31T03:30:08;8.98;;;4.57;;
19867;SDS011;10096;51.112;6.776;2023-07-31T03:32:36;10.25;;;4.93;;
19867;SDS011;10096;51.112;6.776;2023-07-31T03:35:03;9.02;;;5.03;;
19867;SDS011;10096;51.112;6.776;2023-07-31T03:37:31;8.95;;;6.18;;
19867;SDS011;10096;51.112;6.776;2023-07-31T03:39:58;8.77;;;6.50;;
19867;SDS011;10096;51.112;6.776;2023-07-31T03:42:25;7.57;;;4.85;;
19867;SDS011;10096;51.112;6.776;2023-07-31T03:44:53;10.88;;;5.35;;
19867;SDS011;10096;51.112;6.776;2023-07-31T03:47:20;7.78;;;4.88;;
19867;SDS011;10096;51.112;6.776;2023-07-31T03:49:47;10.50;;;4.80;;
19867;SDS011;10096;51.112;6.776;2023-07-31T03:52:14;8.90;;;5.50;;
19867;SDS011;10096;51.112;6.776;2023-07-31T03:54:41;9.23;;;5.05;;
19867;SDS011;10096;51.112;6.776;2023-07-31T03:57:09;7.18;;;5.15;;
19867;SDS011;10096;51.112;6.776;2023-07-31T03:59:36;6.55;;;5.13;;
19867;SDS011;10096;51.112;6.776;2023-07-31T04:02:05;8.27;;;5.03;;
19867;SDS011;10096;51.112;6.776;2023-07-31T04:04:32;7.75;;;5.25;;
19867;SDS011;10096;51.112;6.776;2023-07-31T04:06:59;8.60;;;4.47;;
19867;SDS011;10096;51.112;6.776;2023-07-31T04:09:26;9.48;;;4.85;;
19867;SDS011;10096;51.112;6.776;2023-07-31T04:11:52;7.82;;;5.07;;
19867;SDS011;10096;51.112;6.776;2023-07-31T04:14:19;7.22;;;4.90;;
19867;SDS011;10096;51.112;6.776;2023-07-31T04:16:46;7.28;;;4.90;;
19867;SDS011;10096;51.112;6.776;2023-07-31T04:19:15;6.40;;;4.45;;
19867;SDS011;10096;51.112;6.776;2023-07-31T04:21:42;6.97;;;4.20;;
19867;SDS011;10096;51.112;6.776;2023-07-31T04:24:09;8.43;;;4.85;;
19867;SDS011;10096;51.112;6.776;2023-07-31T04:26:36;8.93;;;4.70;;
19867;SDS011;10096;51.112;6.776;2023-07-31T04:29:02;7.30;;;4.85;;
19867;SDS011;10096;51.112;6.776;2023-07-31T04:31:29;8.80;;;5.22;;
19867;SDS011;10096;51.112;6.776;2023-07-31T04:33:57;5.68;;;4.50;;
19867;SDS011;10096;51.112;6.776;2023-07-31T04:36:25;7.32;;;4.75;;
19867;SDS011;10096;51.112;6.776;2023-07-31T04:38:52;8.27;;;5.07;;
19867;SDS011;10096;51.112;6.776;2023-07-31T04:41:19;10.35;;;5.55;;
19867;SDS011;10096;51.112;6.776;2023-07-31T04:43:46;8.52;;;5.65;;
19867;SDS011;10096;51.112;6.776;2023-07-31T04:46:13;8.55;;;6.38;;
19867;SDS011;10096;51.112;6.776;2023-07-31T04:48:40;10.60;;;5.53;;
19867;SDS011;10096;51.112;6.776;2023-07-31T04:51:07;7.95;;;5.25;;
19867;SDS011;10096;51.112;6.776;2023-07-31T04:53:36;6.43;;;5.15;;
19867;SDS011;10096;51.112;6.776;2023-07-31T04:56:03;6.80;;;5.22;;
19867;SDS011;10096;51.112;6.776;2023-07-31T04:58:31;7.10;;;4.97;;
19867;SDS011;10096;51.112;6.776;2023-07-31T05:00:59;7.50;;;5.28;;
19867;SDS011;10096;51.112;6.776;2023-07-31T05:03:26;7.93;;;5.43;;
19867;SDS011;10096;51.112;6.776;2023-07-31T05:05:52;6.75;;;5.25;;
19867;SDS011;10096;51.112;6.776;2023-07-31T05:08:24;8.52;;;5.13;;
19867;SDS011;10096;51.112;6.776;2023-07-31T05:10:52;7.57;;;5.28;;
19867;SDS011;10096;51.112;6.776;2023-07-31T05:13:19;6.93;;;5.25;;
19867;SDS011;10096;51.112;6.776;2023-07-31T05:15:46;7.47;;;5.20;;
19867;SDS011;10096;51.112;6.776;2023-07-31T05:18:14;8.35;;;5.15;;
19867;SDS011;10096;51.112;6.776;2023-07-31T05:20:41;8.25;;;5.47;;
19867;SDS011;10096;51.112;6.776;2023-07-31T05:23:08;10.82;;;5.13;;
19867;SDS011;10096;51.112;6.776;2023-07-31T05:25:36;7.80;;;5.07;;
19867;SDS011;10096;51.112;6.776;2023-07-31T05:28:05;11.93;;;5.13;;
19867;SDS011;10096;51.112;6.776;2023-07-31T05:30:33;7.47;;;4.95;;
19867;SDS011;10096;51.112;6.776;2023-07-31T05:32:59;6.85;;;4.82;;
19867;SDS011;10096;51.112;6.776;2023-07-31T05:35:27;5.68;;;4.45;;
19867;SDS011;10096;51.112;6.776;2023-07-31T05:37:54;5.38;;;4.63;;
19867;SDS011;10096;51.112;6.776;2023-07-31T05:40:20;8.15;;;5.25;;
19867;SDS011;10096;51.112;6.776;2023-07-31T05:42:47;5.57;;;4.13;;
19867;SDS011;10096;51.112;6.776;2023-07-31T05:45:16;6.18;;;4.90;;
19867;SDS011;10096;51.112;6.776;2023-07-31T05:47:43;6.78;;;4.30;;
19867;SDS011;10096;51.112;6.776;2023-07-31T05:50:10;6.65;;;4.25;;
19867;SDS011;10096;51.112;6.776;2023-07-31T05:52:38;6.72;;;4.43;;
19867;SDS011;10096;51.112;6.776;2023-07-31T05:55:05;6.60;;;4.50;;
19867;SDS011;10096;51.112;6.776;2023-07-31T05:57:33;6.32;;;4.15;;
19867;SDS011;10096;51.112;6.776;2023-07-31T06:00:03;9.57;;;4.85;;
19867;SDS011;10096;51.112;6.776;2023-07-31T06:02:33;7.53;;;4.78;;
19867;SDS011;10096;51.112;6.776;2023-07-31T06:05:02;6.25;;;4.80;;
19867;SDS011;10096;51.112;6.776;2023-07-31T06:07:30;8.10;;;5.10;;
19867;SDS011;10096;51.112;6.776;2023-07-31T06:09:57;7.72;;;4.97;;
19867;SDS011;10096;51.112;6.776;2023-07-31T06:12:28;6.80;;;4.72;;
19867;SDS011;10096;51.112;6.776;2023-07-31T06:14:56;5.63;;;4.40;;
19867;SDS011;10096;51.112;6.776;2023-07-31T06:17:23;7.55;;;4.80;;
19867;SDS011;10096;51.112;6.776;2023-07-31T06:19:52;6.25;;;4.90;;
19867;SDS011;10096;51.112;6.776;2023-07-31T06:22:19;8.23;;;4.63;;
19867;SDS011;10096;51.112;6.776;2023-07-31T06:24:46;6.95;;;4.93;;
19867;SDS011;10096;51.112;6.776;2023-07-31T06:27:13;9.98;;;5.10;;
19867;SDS011;10096;51.112;6.776;2023-07-31T06:29:41;5.75;;;4.57;;
19867;SDS011;10096;51.112;6.776;2023-07-31T06:32:09;7.05;;;4.75;;
19867;SDS011;10096;51.112;6.776;2023-07-31T06:34:36;9.40;;;4.60;;
19867;SDS011;10096;51.112;6.776;2023-07-31T06:37:07;5.85;;;4.38;;
19867;SDS011;10096;51.112;6.776;2023-07-31T06:39:34;5.93;;;3.88;;
19867;SDS011;10096;51.112;6.776;2023-07-31T06:42:02;6.45;;;4.93;;
19867;SDS011;10096;51.112;6.776;2023-07-31T06:44:32;6.50;;;4.38;;
19867;SDS011;10096;51.112;6.776;2023-07-31T06:46:59;9.77;;;4.85;;
19867;SDS011;10096;51.112;6.776;2023-07-31T06:49:26;6.90;;;4.38;;
19867;SDS011;10096;51.112;6.776;2023-07-31T06:51:52;6.25;;;4.65;;
19867;SDS011;10096;51.112;6.776;2023-07-31T06:54:21;6.43;;;4.55;;
19867;SDS011;10096;51.112;6.776;2023-07-31T06:56:48;8.88;;;4.75;;
19867;SDS011;10096;51.112;6.776;2023-07-31T06:59:15;5.90;;;4.47;;
19867;SDS011;10096;51.112;6.776;2023-07-31T07:01:42;5.82;;;3.67;;
19867;SDS011;10096;51.112;6.776;2023-07-31T07:04:09;7.32;;;4.40;;
19867;SDS011;10096;51.112;6.776;2023-07-31T07:06:36;6.57;;;4.55;;
19867;SDS011;10096;51.112;6.776;2023-07-31T07:09:03;6.60;;;4.03;;
19867;SDS011;10096;51.112;6.776;2023-07-31T07:11:31;6.65;;;4.93;;
19867;SDS011;10096;51.112;6.776;2023-07-31T07:13:59;7.13;;;4.75;;
19867;SDS011;10096;51.112;6.776;2023-07-31T07:16:26;5.70;;;3.90;;
19867;SDS011;10096;51.112;6.776;2023-07-31T07:18:54;6.97;;;4.03;;
19867;SDS011;10096;51.112;6.776;2023-07-31T07:21:21;5.63;;;4.55;;
19867;SDS011;10096;51.112;6.776;2023-07-31T07:23:48;9.75;;;4.82;;
19867;SDS011;10096;51.112;6.776;2023-07-31T07:26:15;7.10;;;4.35;;
19867;SDS011;10096;51.112;6.776;2023-07-31T07:28:43;6.68;;;4.47;;
19867;SDS011;10096;51.112;6.776;2023-07-31T07:31:10;10.07;;;6.38;;
19867;SDS011;10096;51.112;6.776;2023-07-31T07:33:37;16.60;;;13.40;;
19867;SDS011;10096;51.112;6.776;2023-07-31T07:36:04;6.40;;;4.30;;
19867;SDS011;10096;51.112;6.776;2023-07-31T07:38:35;7.70;;;5.00;;
19867;SDS011;10096;51.112;6.776;2023-07-31T07:41:04;6.80;;;4.55;;
19867;SDS011;10096;51.112;6.776;2023-07-31T07:43:31;8.05;;;5.07;;
19867;SDS011;10096;51.112;6.776;2023-07-31T07:45:59;7.65;;;5.05;;
19867;SDS011;10096;51.112;6.776;2023-07-31T07:48:26;7.22;;;5.13;;
19867;SDS011;10096;51.112;6.776;2023-07-31T07:50:53;6.80;;;5.13;;
19867;SDS011;10096;51.112;6.776;2023-07-31T07:53:22;8.13;;;5.15;;
19867;SDS011;10096;51.112;6.776;2023-07-31T07:55:49;7.28;;;4.85;;
19867;SDS011;10096;51.112;6.776;2023-07-31T07:58:15;7.20;;;3.75;;
19867;SDS011;10096;51.112;6.776;2023-07-31T08:00:46;5.05;;;3.78;;
19867;SDS011;10096;51.112;6.776;2023-07-31T08:03:19;8.40;;;4.60;;
19867;SDS011;10096;51.112;6.776;2023-07-31T08:05:46;6.10;;;3.92;;
19867;SDS011;10096;51.112;6.776;2023-07-31T08:08:14;5.60;;;3.80;;
19867;SDS011;10096;51.112;6.776;2023-07-31T08:10:42;7.45;;;4.57;;
19867;SDS011;10096;51.112;6.776;2023-07-31T08:13:09;6.57;;;4.85;;
19867;SDS011;10096;51.112;6.776;2023-07-31T08:15:37;5.25;;;3.90;;
19867;SDS011;10096;51.112;6.776;2023-07-31T08:18:04;4.85;;;4.13;;
19867;SDS011;10096;51.112;6.776;2023-07-31T08:20:32;7.55;;;6.28;;
19867;SDS011;10096;51.112;6.776;2023-07-31T08:23:01;6.28;;;5.20;;
19867;SDS011;10096;51.112;6.776;2023-07-31T08:25:28;6.10;;;3.83;;
19867;SDS011;10096;51.112;6.776;2023-07-31T08:27:55;5.78;;;3.92;;
19867;SDS011;10096;51.112;6.776;2023-07-31T08:30:22;4.07;;;3.60;;
19867;SDS011;10096;51.112;6.776;2023-07-31T08:32:49;5.93;;;4.57;;
19867;SDS011;10096;51.112;6.776;2023-07-31T08:35:16;4.75;;;4.05;;
19867;SDS011;10096;51.112;6.776;2023-07-31T08:37:44;6.03;;;4.18;;
19867;SDS011;10096;51.112;6.776;2023-07-31T08:40:11;4.43;;;3.67;;
19867;SDS011;10096;51.112;6.776;2023-07-31T08:42:45;5.13;;;3.88;;
19867;SDS011;10096;51.112;6.776;2023-07-31T08:45:13;5.03;;;4.30;;
19867;SDS011;10096;51.112;6.776;2023-07-31T08:47:42;6.85;;;3.53;;
19867;SDS011;10096;51.112;6.776;2023-07-31T08:50:10;8.27;;;4.20;;
19867;SDS011;10096;51.112;6.776;2023-07-31T08:52:39;5.63;;;4.13;;
19867;SDS011;10096;51.112;6.776;2023-07-31T08:55:08;4.60;;;4.13;;
19867;SDS011;10096;51.112;6.776;2023-07-31T08:57:36;4.70;;;3.63;;
19867;SDS011;10096;51.112;6.776;2023-07-31T09:00:04;5.40;;;4.25;;
19867;SDS011;10096;51.112;6.776;2023-07-31T09:02:34;5.35;;;3.95;;
19867;SDS011;10096;51.112;6.776;2023-07-31T09:05:19;6.75;;;4.07;;
19867;SDS011;10096;51.112;6.776;2023-07-31T09:07:48;7.57;;;4.18;;
19867;SDS011;10096;51.112;6.776;2023-07-31T09:10:19;4.90;;;3.65;;
19867;SDS011;10096;51.112;6.776;2023-07-31T09:12:46;5.78;;;4.20;;
19867;SDS011;10096;51.112;6.776;2023-07-31T09:15:14;4.82;;;4.15;;
19867;SDS011;10096;51.112;6.776;2023-07-31T09:17:41;5.90;;;4.00;;
19867;SDS011;10096;51.112;6.776;2023-07-31T09:20:15;5.75;;;3.60;;
19867;SDS011;10096;51.112;6.776;2023-07-31T09:22:42;6.85;;;4.22;;
19867;SDS011;10096;51.112;6.776;2023-07-31T09:25:16;4.50;;;4.10;;
19867;SDS011;10096;51.112;6.776;2023-07-31T09:27:46;5.03;;;3.97;;
19867;SDS011;10096;51.112;6.776;2023-07-31T09:30:14;4.97;;;3.88;;
19867;SDS011;10096;51.112;6.776;2023-07-31T09:32:42;7.18;;;4.20;;
19867;SDS011;10096;51.112;6.776;2023-07-31T09:35:19;6.75;;;3.85;;
19867;SDS011;10096;51.112;6.776;2023-07-31T09:37:50;6.43;;;3.85;;
19867;SDS011;10096;51.112;6.776;2023-07-31T09:40:26;4.90;;;4.07;;
19867;SDS011;10096;51.112;6.776;2023-07-31T09:42:58;5.00;;;3.90;;
19867;SDS011;10096;51.112;6.776;2023-07-31T09:45:26;5.22;;;3.65;;
19867;SDS011;10096;51.112;6.776;2023-07-31T09:47:53;5.32;;;3.58;;
19867;SDS011;10096;51.112;6.776;2023-07-31T09:50:21;5.68;;;3.55;;
19867;SDS011;10096;51.112;6.776;2023-07-31T09:52:50;5.53;;;4.43;;
19867;SDS011;10096;51.112;6.776;2023-07-31T09:55:17;6.93;;;4.10;;
19867;SDS011;10096;51.112;6.776;2023-07-31T09:57:48;5.18;;;3.80;;
19867;SDS011;10096;51.112;6.776;2023-07-31T10:00:16;5.05;;;3.65;;
19867;SDS011;10096;51.112;6.776;2023-07-31T10:02:47;4.07;;;3.58;;
19867;SDS011;10096;51.112;6.776;2023-07-31T10:05:16;4.40;;;4.00;;
19867;SDS011;10096;51.112;6.776;2023-07-31T10:07:45;5.55;;;4.18;;
19867;SDS011;10096;51.112;6.776;2023-07-31T10:10:19;4.70;;;3.95;;
19867;SDS011;10096;51.112;6.776;2023-07-31T10:12:49;4.68;;;3.47;;
19867;SDS011;10096;51.112;6.776;2023-07-31T10:15:18;6.00;;;4.32;;
19867;SDS011;10096;51.112;6.776;2023-07-31T10:17:47;6.65;;;4.40;;
19867;SDS011;10096;51.112;6.776;2023-07-31T10:20:14;7.85;;;4.15;;
19867;SDS011;10096;51.112;6.776;2023-07-31T10:22:42;6.78;;;4.47;;
19867;SDS011;10096;51.112;6.776;2023-07-31T10:25:11;5.65;;;4.13;;
19867;SDS011;10096;51.112;6.776;2023-07-31T10:27:38;6.32;;;4.82;;
19867;SDS011;10096;51.112;6.776;2023-07-31T10:30:08;6.32;;;4.25;;
19867;SDS011;10096;51.112;6.776;2023-07-31T10:32:38;4.95;;;4.10;;
19867;SDS011;10096;51.112;6.776;2023-07-31T10:35:08;4.07;;;3.65;;
19867;SDS011;10096;51.112;6.776;2023-07-31T10:37:36;5.38;;;3.83;;
19867;SDS011;10096;51.112;6.776;2023-07-31T10:40:05;4.38;;;3.95;;
19867;SDS011;10096;51.112;6.776;2023-07-31T10:42:33;8.90;;;4.35;;
19867;SDS011;10096;51.112;6.776;2023-07-31T10:45:02;5.72;;;4.20;;
19867;SDS011;10096;51.112;6.776;2023-07-31T10:47:32;3.83;;;3.22;;
19867;SDS011;10096;51.112;6.776;2023-07-31T10:50:13;3.95;;;3.33;;
19867;SDS011;10096;51.112;6.776;2023-07-31T10:52:44;4.05;;;3.30;;
19867;SDS011;10096;51.112;6.776;2023-07-31T10:55:15;6.35;;;3.97;;
19867;SDS011;10096;51.112;6.776;2023-07-31T10:57:48;4.03;;;2.95;;
19867;SDS011;10096;51.112;6.776;2023-07-31T11:00:19;3.78;;;3.30;;
19867;SDS011;10096;51.112;6.776;2023-07-31T11:03:12;4.05;;;3.00;;
19867;SDS011;10096;51.112;6.776;2023-07-31T11:05:45;3.38;;;2.88;;
19867;SDS011;10096;51.112;6.776;2023-07-31T11:08:19;2.90;;;2.63;;
19867;SDS011;10096;51.112;6.776;2023-07-31T11:10:47;4.63;;;2.72;;
19867;SDS011;10096;51.112;6.776;2023-07-31T11:13:19;2.28;;;2.08;;
19867;SDS011;10096;51.112;6.776;2023-07-31T11:15:46;2.60;;;2.33;;
19867;SDS011;10096;51.112;6.776;2023-07-31T11:18:15;2.40;;;2.20;;
19867;SDS011;10096;51.112;6.776;2023-07-31T11:20:43;2.47;;;2.00;;
19867;SDS011;10096;51.112;6.776;2023-07-31T11:23:16;2.22;;;2.13;;
19867;SDS011;10096;51.112;6.776;2023-07-31T11:25:44;2.85;;;2.17;;
19867;SDS011;10096;51.112;6.776;2023-07-31T11:28:13;3.58;;;2.40;;
19867;SDS011;10096;51.112;6.776;2023-07-31T11:30:41;2.47;;;1.92;;
19867;SDS011;10096;51.112;6.776;2023-07-31T11:33:10;2.35;;;1.92;;
19867;SDS011;10096;51.112;6.776;2023-07-31T11:35:42;2.30;;;2.10;;
19867;SDS011;10096;51.112;6.776;2023-07-31T11:38:20;2.75;;;2.10;;
19867;SDS011;10096;51.112;6.776;2023-07-31T11:40:49;2.35;;;2.15;;
19867;SDS011;10096;51.112;6.776;2023-07-31T11:43:17;2.92;;;2.22;;
19867;SDS011;10096;51.112;6.776;2023-07-31T11:47:55;3.03;;;2.42;;
19867;SDS011;10096;51.112;6.776;2023-07-31T11:49:14;2.50;;;2.30;;
19867;SDS011;10096;51.112;6.776;2023-07-31T11:51:43;2.72;;;2.53;;
19867;SDS011;10096;51.112;6.776;2023-07-31T11:54:10;3.63;;;2.65;;
19867;SDS011;10096;51.112;6.776;2023-07-31T11:56:41;2.22;;;2.13;;
19867;SDS011;10096;51.112;6.776;2023-07-31T11:59:09;2.75;;;1.98;;
19867;SDS011;10096;51.112;6.776;2023-07-31T12:01:37;3.17;;;2.70;;
19867;SDS011;10096;51.112;6.776;2023-07-31T12:04:05;2.95;;;2.60;;
19867;SDS011;10096;51.112;6.776;2023-07-31T12:06:32;2.70;;;2.50;;
19867;SDS011;10096;51.112;6.776;2023-07-31T12:09:02;2.58;;;2.38;;
19867;SDS011;10096;51.112;6.776;2023-07-31T12:11:41;2.40;;;2.28;;
19867;SDS011;10096;51.112;6.776;2023-07-31T12:14:24;3.25;;;2.20;;
19867;SDS011;10096;51.112;6.776;2023-07-31T12:18:02;3.30;;;2.35;;
19867;SDS011;10096;51.112;6.776;2023-07-31T12:20:53;4.43;;;2.92;;
19867;SDS011;10096;51.112;6.776;2023-07-31T12:23:31;3.15;;;2.85;;
19867;SDS011;10096;51.112;6.776;2023-07-31T12:26:03;4.53;;;3.30;;
19867;SDS011;10096;51.112;6.776;2023-07-31T12:28:34;3.42;;;3.13;;
19867;SDS011;10096;51.112;6.776;2023-07-31T12:31:03;3.22;;;2.92;;
19867;SDS011;10096;51.112;6.776;2023-07-31T12:33:32;3.83;;;3.53;;
19867;SDS011;10096;51.112;6.776;2023-07-31T12:36:00;4.65;;;2.85;;
19867;SDS011;10096;51.112;6.776;2023-07-31T12:38:28;3.45;;;3.13;;
19867;SDS011;10096;51.112;6.776;2023-07-31T12:40:55;3.80;;;3.50;;
19867;SDS011;10096;51.112;6.776;2023-07-31T12:43:24;3.70;;;3.38;;
19867;SDS011;10096;51.112;6.776;2023-07-31T12:45:51;4.28;;;3.13;;
19867;SDS011;10096;51.112;6.776;2023-07-31T12:48:20;3.15;;;2.85;;
19867;SDS011;10096;51.112;6.776;2023-07-31T12:50:47;3.55;;;3.20;;
19867;SDS011;10096;51.112;6.776;2023-07-31T12:53:14;5.22;;;3.35;;
19867;SDS011;10096;51.112;6.776;2023-07-31T12:55:41;3.88;;;3.35;;
19867;SDS011;10096;51.112;6.776;2023-07-31T12:58:08;4.13;;;3.08;;
19867;SDS011;10096;51.112;6.776;2023-07-31T13:00:37;4.50;;;3.10;;
19867;SDS011;10096;51.112;6.776;2023-07-31T13:03:04;3.78;;;3.38;;
19867;SDS011;10096;51.112;6.776;2023-07-31T13:05:31;3.13;;;2.75;;
19867;SDS011;10096;51.112;6.776;2023-07-31T13:07:58;3.58;;;2.97;;
19867;SDS011;10096;51.112;6.776;2023-07-31T13:10:25;3.70;;;3.25;;
19867;SDS011;10096;51.112;6.776;2023-07-31T13:12:54;3.90;;;3.50;;
19867;SDS011;10096;51.112;6.776;2023-07-31T13:15:21;4.15;;;3.53;;
19867;SDS011;10096;51.112;6.776;2023-07-31T13:17:50;5.50;;;3.47;;
19867;SDS011;10096;51.112;6.776;2023-07-31T13:20:17;5.78;;;3.67;;
19867;SDS011;10096;51.112;6.776;2023-07-31T13:22:44;4.00;;;3.30;;
19867;SDS011;10096;51.112;6.776;2023-07-31T13:25:11;4.53;;;3.85;;
19867;SDS011;10096;51.112;6.776;2023-07-31T13:27:37;4.40;;;4.00;;
19867;SDS011;10096;51.112;6.776;2023-07-31T13:30:05;3.72;;;3.33;;
19867;SDS011;10096;51.112;6.776;2023-07-31T13:32:33;3.90;;;3.50;;
19867;SDS011;10096;51.112;6.776;2023-07-31T13:35:05;4.65;;;3.63;;
19867;SDS011;10096;51.112;6.776;2023-07-31T13:37:33;4.57;;;3.72;;
19867;SDS011;10096;51.112;6.776;2023-07-31T13:40:00;4.90;;;3.20;;
19867;SDS011;10096;51.112;6.776;2023-07-31T13:42:29;4.43;;;3.47;;
19867;SDS011;10096;51.112;6.776;2023-07-31T13:44:56;3.50;;;3.03;;
19867;SDS011;10096;51.112;6.776;2023-07-31T13:47:23;4.35;;;3.70;;
19867;SDS011;10096;51.112;6.776;2023-07-31T13:49:50;3.35;;;2.97;;
19867;SDS011;10096;51.112;6.776;2023-07-31T13:52:20;4.18;;;3.53;;
19867;SDS011;10096;51.112;6.776;2023-07-31T13:54:47;3.90;;;3.22;;
19867;SDS011;10096;51.112;6.776;2023-07-31T13:57:14;4.10;;;3.03;;
19867;SDS011;10096;51.112;6.776;2023-07-31T13:59:42;3.75;;;3.30;;
19867;SDS011;10096;51.112;6.776;2023-07-31T14:02:09;5.25;;;3.95;;
19867;SDS011;10096;51.112;6.776;2023-07-31T14:04:36;3.85;;;3.35;;
19867;SDS011;10096;51.112;6.776;2023-07-31T14:07:03;4.35;;;3.20;;
19867;SDS011;10096;51.112;6.776;2023-07-31T14:09:32;3.65;;;3.35;;
19867;SDS011;10096;51.112;6.776;2023-07-31T14:11:59;3.90;;;3.42;;
19867;SDS011;10096;51.112;6.776;2023-07-31T14:14:26;5.13;;;3.60;;
19867;SDS011;10096;51.112;6.776;2023-07-31T14:16:52;4.57;;;3.08;;
19867;SDS011;10096;51.112;6.776;2023-07-31T14:19:20;4.22;;;3.10;;
19867;SDS011;10096;51.112;6.776;2023-07-31T14:21:47;5.32;;;4.63;;
19867;SDS011;10096;51.112;6.776;2023-07-31T14:24:14;5.07;;;4.07;;
19867;SDS011;10096;51.112;6.776;2023-07-31T14:26:42;4.32;;;3.72;;
19867;SDS011;10096;51.112;6.776;2023-07-31T14:29:10;6.75;;;3.63;;
19867;SDS011;10096;51.112;6.776;2023-07-31T14:31:37;3.95;;;3.55;;
19867;SDS011;10096;51.112;6.776;2023-07-31T14:34:04;4.72;;;4.15;;
19867;SDS011;10096;51.112;6.776;2023-07-31T14:36:32;6.90;;;3.85;;
19867;SDS011;10096;51.112;6.776;2023-07-31T14:38:59;4.45;;;4.05;;
19867;SDS011;10096;51.112;6.776;2023-07-31T14:41:26;5.55;;;4.68;;
19867;SDS011;10096;51.112;6.776;2023-07-31T14:43:54;6.40;;;4.40;;
19867;SDS011;10096;51.112;6.776;2023-07-31T14:46:21;5.38;;;4.72;;
19867;SDS011;10096;51.112;6.776;2023-07-31T14:48:48;5.07;;;4.55;;
19867;SDS011;10096;51.112;6.776;2023-07-31T14:51:15;9.02;;;6.43;;
19867;SDS011;10096;51.112;6.776;2023-07-31T14:53:55;4.90;;;4.45;;
19867;SDS011;10096;51.112;6.776;2023-07-31T14:56:22;6.03;;;5.20;;
19867;SDS011;10096;51.112;6.776;2023-07-31T14:58:51;6.38;;;5.32;;
19867;SDS011;10096;51.112;6.776;2023-07-31T15:01:21;5.50;;;5.00;;